Flight Track Log - Related Links

Times and Time Zones

All times are in EDT time to prevent confusion due to time zone crossing. See the SWA868 flight status page for this flight to view local times or setup timezone preferences in your user account.

Time Position Orientation Groundspeed Altitude Reporting Facility
EDT Latitude Longitude Course Direction KTS MPH feet Rate Location/Type
Sun 10:19:40 PM 28.1392 -82.5467 356° North 272 313 4,900  Level Jacksonville Center
Sun 10:20:40 PM 28.2206 -82.5581 353° North 278 320 8,500 3,100 Climbing Jacksonville Center
Sun 10:21:40 PM 28.3061 -82.5719 352° North 289 333 11,100 2,800 Climbing Jacksonville Center
Sun 10:22:40 PM 28.4083 -82.5833 354° North 330 380 14,100 3,000 Climbing Jacksonville Center
Sun 10:23:40 PM 28.5128 -82.5878 358° North 357 411 17,100 2,950 Climbing Jacksonville Center
Sun 10:24:40 PM 28.6233 -82.5897 359° North 376 433 20,000 2,800 Climbing Jacksonville Center
Sun 10:25:40 PM 28.7319 -82.5967 357° North 388 447 22,700 2,450 Climbing Jacksonville Center
Sun 10:26:40 PM 28.8444 -82.6128 353° North 393 452 24,900 1,750 Climbing Jacksonville Center
Sun 10:27:40 PM 28.9636 -82.6292 353° North 406 467 26,200 1,300 Climbing Jacksonville Center
Sun 10:28:40 PM 29.0931 -82.6478 353° North 430 495 27,500 1,800 Climbing Jacksonville Center
Sun 10:29:40 PM 29.2244 -82.6642 354° North 455 524 29,800 2,450 Climbing Jacksonville Center
Sun 10:30:40 PM 29.3497 -82.6853 352° North 468 539 32,400 2,350 Climbing Jacksonville Center
Sun 10:31:40 PM 29.4708 -82.6922 357° North 455 524 34,500 1,800 Climbing Jacksonville Center
Sun 10:32:40 PM 29.5919 -82.6967 358° North 439 505 36,000 750 Climbing Jacksonville Center
Sun 10:33:40 PM 29.7069 -82.6917 North 420 483 36,000 100 Level Jacksonville Center
Sun 10:34:40 PM 29.8217 -82.6556 15° North 420 483 36,200 500 Climbing Jacksonville Center
Sun 10:35:40 PM 29.9364 -82.6097 19° North 420 483 37,000 1,200 Climbing Jacksonville Center
Sun 10:36:40 PM 30.0531 -82.5686 17° North 438 504 38,600 1,000 Climbing Jacksonville Center
Sun 10:37:40 PM 30.1678 -82.5250 18° North 438 504 39,000 200 Climbing Jacksonville Center
Sun 10:38:40 PM 30.2783 -82.4814 19° North 427 491 39,000  Level Jacksonville Center
Sun 10:39:40 PM 30.3911 -82.4397 18° North 421 484 39,000  Level Jacksonville Center
Sun 10:40:40 PM 30.4806 -82.4033 19° North 421 484 39,000  Level Jacksonville Center
Sun 10:41:40 PM 30.5972 -82.3422 24° Northeast 421 484 39,000  Level Jacksonville Center
Sun 10:42:40 PM 30.7036 -82.2742 29° Northeast 421 484 39,000  Level Jacksonville Center
Sun 10:43:40 PM 30.8075 -82.2081 29° Northeast 421 484 39,000  Level Jacksonville Center
Sun 10:44:40 PM 30.9136 -82.1419 28° Northeast 426 490 39,000  Level Jacksonville Center
Sun 10:45:40 PM 31.0197 -82.0756 28° Northeast 426 490 39,000  Level Jacksonville Center
Sun 10:46:40 PM 31.1258 -82.0044 30° Northeast 426 490 39,000  Level Jacksonville Center
Sun 10:47:40 PM 31.2339 -81.9378 28° Northeast 431 496 39,000  Level Jacksonville Center
Sun 10:48:40 PM 31.3419 -81.8686 29° Northeast 431 496 39,000  Level Jacksonville Center
Sun 10:49:40 PM 31.4603 -81.7892 30° Northeast 437 503 39,000  Level Jacksonville Center
Sun 10:50:40 PM 31.5578 -81.7297 27° Northeast 437 503 39,000  Level Jacksonville Center
Sun 10:51:40 PM 31.6739 -81.6525 30° Northeast 437 503 39,000  Level Jacksonville Center
Sun 10:52:40 PM 31.7797 -81.5825 29° Northeast 435 501 39,000  Level Jacksonville Center
Sun 10:53:40 PM 31.8875 -81.5150 28° Northeast 435 501 39,000  Level Jacksonville Center
Sun 10:54:40 PM 31.9933 -81.4450 29° Northeast 435 501 39,000  Level Jacksonville Center
Sun 10:55:40 PM 32.0969 -81.3769 29° Northeast 448 516 39,000  Level Jacksonville Center
Sun 10:56:40 PM 32.2108 -81.3039 28° Northeast 459 528 39,000  Level Jacksonville Center
Sun 10:57:40 PM 32.3186 -81.2308 30° Northeast 454 522 39,000  Level Jacksonville Center
Sun 10:58:40 PM 32.4447 -81.1547 27° Northeast 459 528 39,000  Level Jacksonville Center
Sun 10:59:40 PM 32.5564 -81.0811 29° Northeast 459 528 39,000  Level Jacksonville Center
Sun 11:00:40 PM 32.6578 -81.0100 31° Northeast 459 528 39,000  Level Jacksonville Center
Sun 11:01:40 PM 32.7736 -80.9333 29° Northeast 459 528 39,000  Level Jacksonville Center
Sun 11:02:40 PM 32.8869 -80.8567 30° Northeast 459 528 39,000  Level Jacksonville Center
Sun 11:03:40 PM 33.0108 -80.7747 29° Northeast 459 528 39,000  Level Jacksonville Center
Sun 11:04:40 PM 33.1244 -80.7000 29° Northeast 454 522 39,000  Level Jacksonville Center
Sun 11:05:40 PM 33.2381 -80.6253 29° Northeast 459 528 39,000  Level Jacksonville Center
Sun 11:06:40 PM 33.3533 -80.5478 29° Northeast 459 528 39,000  Level Jacksonville Center
Sun 11:07:40 PM 33.4667 -80.4725 29° Northeast 459 528 39,000  Level Jacksonville Center
Sun 11:08:40 PM 33.5781 -80.3947 30° Northeast 454 522 39,000  Level Jacksonville Center
Sun 11:09:40 PM 33.6892 -80.3192 29° Northeast 454 522 39,000  Level Jacksonville Center
Sun 11:10:40 PM 33.7981 -80.2433 30° Northeast 454 522 39,000  Level Jacksonville Center
Sun 11:11:40 PM 33.9114 -80.1650 30° Northeast 454 522 39,000  Level Jacksonville Center
Sun 11:12:40 PM 34.0244 -80.0889 29° Northeast 454 522 39,000  Level Jacksonville Center
Sun 11:13:40 PM 34.1353 -80.0125 30° Northeast 454 522 39,000  Level Jacksonville Center
Sun 11:14:40 PM 34.2483 -79.9333 30° Northeast 454 522 39,000  Level Jacksonville Center
Sun 11:16:48 PM 34.4850 -79.7669 30° Northeast 451 519 39,000  Level Washington Center
Sun 11:17:49 PM 34.5981 -79.6919 29° Northeast 456 525 39,000  Level Washington Center
Sun 11:18:49 PM 34.7072 -79.6139 30° Northeast 450 518 39,000  Level Washington Center
Sun 11:19:50 PM 34.8206 -79.5336 30° Northeast 455 524 39,000  Level Washington Center
Sun 11:20:50 PM 34.9314 -79.4578 29° Northeast 455 524 39,000  Level Washington Center
Sun 11:21:47 PM 35.0425 -79.3769 31° Northeast 455 524 39,000  Level Washington Center
Sun 11:22:48 PM 35.1575 -79.2986 29° Northeast 455 524 39,000  Level Washington Center
Sun 11:23:48 PM 35.2708 -79.2172 30° Northeast 461 531 39,000  Level Washington Center
Sun 11:24:50 PM 35.3753 -79.1431 30° Northeast 474 545 39,000  Level Washington Center
Sun 11:25:48 PM 35.4986 -79.0567 30° Northeast 474 545 39,000  Level Washington Center
Sun 11:26:48 PM 35.6117 -78.9747 31° Northeast 474 545 39,000  Level Washington Center
Sun 11:27:48 PM 35.7225 -78.8872 33° Northeast 479 551 39,000  Level Washington Center
Sun 11:28:49 PM 35.8317 -78.7894 36° Northeast 479 551 39,000  Level Washington Center
Sun 11:29:49 PM 35.9278 -78.7061 35° Northeast 474 545 39,000  Level Washington Center
Sun 11:30:49 PM 36.0367 -78.6100 36° Northeast 474 545 39,000  Level Washington Center
Sun 11:31:48 PM 36.1433 -78.5139 36° Northeast 474 545 39,000  Level Washington Center
Sun 11:32:49 PM 36.2458 -78.4200 36° Northeast 469 540 39,000  Level Washington Center
Sun 11:33:48 PM 36.3503 -78.3256 36° Northeast 469 540 39,000  Level Washington Center
Sun 11:34:48 PM 36.4547 -78.2286 37° Northeast 464 534 39,000  Level Washington Center
Sun 11:35:49 PM 36.5653 -78.1264 37° Northeast 456 525 39,000  Level Washington Center
Sun 11:36:48 PM 36.6694 -78.0339 35° Northeast 451 519 39,000  Level Washington Center
Sun 11:37:48 PM 36.7736 -77.9386 36° Northeast 451 519 39,000  Level Washington Center
Sun 11:38:49 PM 36.8778 -77.8431 36° Northeast 456 525 39,000  Level Washington Center
Sun 11:39:50 PM 36.9794 -77.7472 37° Northeast 456 525 39,000  Level Washington Center
Sun 11:40:50 PM 37.0833 -77.6539 36° Northeast 456 525 39,000  Level Washington Center
Sun 11:41:50 PM 37.1872 -77.5600 36° Northeast 461 531 39,000  Level Washington Center
Sun 11:42:50 PM 37.2889 -77.4636 37° Northeast 461 531 39,000  Level Washington Center
Sun 11:43:50 PM 37.3947 -77.3669 36° Northeast 461 531 39,000  Level Washington Center
Sun 11:44:48 PM 37.5003 -77.2697 36° Northeast 461 531 39,000  Level Washington Center
Sun 11:45:48 PM 37.6061 -77.1700 37° Northeast 461 531 39,000  Level Washington Center
Sun 11:46:48 PM 37.7094 -77.0722 37° Northeast 466 536 39,000  Level Washington Center
Sun 11:47:48 PM 37.8128 -76.9717 38° Northeast 466 536 39,000  Level Washington Center
Sun 11:48:48 PM 37.9161 -76.8736 37° Northeast 466 536 39,000  Level Washington Center
Sun 11:49:48 PM 38.0214 -76.7728 37° Northeast 466 536 39,000  Level Washington Center
Sun 11:50:50 PM 38.1225 -76.6764 37° Northeast 466 536 39,000  Level Washington Center
Sun 11:51:48 PM 38.2233 -76.5803 37° Northeast 466 536 39,000  Level Washington Center
Sun 11:52:48 PM 38.3117 -76.4939 37° Northeast 454 522 39,000  Level Washington Center
Sun 11:53:50 PM 38.4125 -76.3972 37° Northeast 449 517 39,000  Level Washington Center
Sun 11:54:50 PM 38.5172 -76.3028 35° Northeast 449 517 39,000  Level Washington Center
Sun 11:55:48 PM 38.6281 -76.2375 25° Northeast 444 511 39,000  Level Washington Center
Sun 11:56:48 PM 38.7431 -76.1744 23° Northeast 444 511 39,000  Level Washington Center
Sun 11:57:49 PM 38.8725 -76.1061 22° Northeast 444 511 39,000  Level Washington Center
Sun 11:58:48 PM 38.9875 -76.0431 23° Northeast 444 511 39,000  Level Washington Center
Sun 11:59:48 PM 39.1025 -75.9794 23° Northeast 444 511 39,000  Level Washington Center
Mon 12:00:47 AM 39.2150 -75.9158 24° Northeast 444 511 39,000 -489 Level Washington Center
Mon 12:02:52 AM 39.4397 -75.7897 23° Northeast 431 496 37,500 -649 Descending New York Center
Mon 12:03:52 AM 39.5547 -75.7281 22° Northeast 431 496 37,000 -170 Descending New York Center
Mon 12:05:48 AM 39.7908 -75.5883 24° Northeast 441 507 37,000  Level Boston Center
Mon 12:06:48 AM 39.8919 -75.4797 39° Northeast 461 531 37,000  Level Boston Center
Mon 12:07:48 AM 39.9931 -75.3514 44° Northeast 474 545 37,000  Level Boston Center
Mon 12:08:48 AM 40.0881 -75.2256 45° Northeast 479 551 37,000  Level Boston Center
Mon 12:09:48 AM 40.1869 -75.0967 45° Northeast 491 565 37,000 -886 Level Boston Center
Mon 12:11:00 AM 40.2125 -74.9465 41° Northeast  Level FlightAware Approximate
Mon 12:18:00 AM 40.8213 -74.1942 44° Northeast  Level FlightAware Approximate
Mon 12:19:00 AM 40.9076 -74.0852 44° Northeast  Level FlightAware Approximate
Mon 12:20:00 AM 41.0043 -73.9920 36° Northeast  Level FlightAware Approximate
Mon 12:21:00 AM 41.1009 -73.8986 36° Northeast  Level FlightAware Approximate
Mon 12:22:00 AM 41.1901 -73.7874 45° Northeast  Level FlightAware Approximate
Mon 12:23:00 AM 41.2752 -73.6757 45° Northeast  Level FlightAware Approximate
Mon 12:24:00 AM 41.3603 -73.5638 45° Northeast  Level FlightAware Approximate
Mon 12:25:00 AM 41.4441 -73.4501 46° Northeast  Level FlightAware Approximate
Mon 12:26:00 AM 41.5275 -73.3357 46° Northeast  Level FlightAware Approximate
Mon 12:27:00 AM 41.6107 -73.2210 46° Northeast  Level FlightAware Approximate
Mon 12:28:00 AM 41.7006 -73.1161 37° Northeast  Level FlightAware Approximate
Mon 12:29:00 AM 41.7876 -73.0077 49° Northeast  Level FlightAware Approximate
Mon 12:30:00 AM 41.8652 -72.8856 49° Northeast  Level FlightAware Approximate
Mon 12:31:00 AM 41.9515 -72.7767 44° Northeast  Level FlightAware Approximate
Mon 12:32:00 AM 42.0380 -72.6655 44° Northeast  Level FlightAware Approximate
Mon 12:33:00 AM 42.1188 -72.5469 47° Northeast  Level FlightAware Approximate
Mon 12:34:00 AM 42.2005 -72.4291 47° Northeast  Level FlightAware Approximate
Mon 12:34:32 AM 42.4500 -71.9833 47° Northeast 371 427 14,200  Level KA90
Mon 12:35:00 AM 42.2838 -72.3134 41° Northeast  Level FlightAware Approximate
Mon 12:35:02 AM 42.4833 -71.9333 48° Northeast 356 410 13,600  Level KA90
Mon 12:36:00 AM 42.3667 -72.2030 90° East  Level FlightAware Approximate
Mon 12:36:08 AM 42.5500 -71.8500 43° Northeast 316 364 12,000  Level KA90
Mon 12:37:00 AM 42.4506 -72.0993 44° Northeast  Level FlightAware Approximate
Mon 12:37:08 AM 42.6000 -71.7667 51° Northeast 292 336 10,100  Level KA90
Mon 12:38:00 AM 42.5345 -71.9837 47° Northeast  Level FlightAware Approximate
Mon 12:38:08 AM 42.6667 -71.7167 29° Northeast 251 289 8,200  Level KA90
Mon 12:39:00 AM 42.6163 -71.8654 47° Northeast  Level FlightAware Approximate
Mon 12:39:08 AM 42.7167 -71.6833 26° Northeast 188 216 7,300  Level KA90
Mon 12:40:08 AM 42.7500 -71.6500 36° Northeast 157 181 5,800 -1,500 Descending KA90
Mon 12:41:08 AM 42.7833 -71.6167 36° Northeast 163 188 4,300 -1,300 Descending KA90
Mon 12:42:08 AM 42.8167 -71.5833 36° Northeast 156 180 3,200 -850 Descending KA90
Mon 12:43:08 AM 42.8500 -71.5500 36° Northeast 180 207 2,600 -850 Descending KA90
Mon 12:44:08 AM 42.8833 -71.5000 48° Northeast 167 192 1,500 -950 Descending KA90
Mon 12:45:08 AM 42.9167 -71.4667 36° Northeast 157 181 700 -800 Descending KA90
Mon 12:47:00 AM 42.9167 -71.4333 44° Northeast  Level FlightAware Approximate
Mon 12:54:00 AM 42.9328 -71.4358 44° Northeast  Level Estimated
Mon 12:55:00 AM 42.9328 -71.4358 44° Northeast  Level Estimated
Mon 12:56:00 AM 42.9328 -71.4358 44° Northeast  Level Estimated
Mon 12:57:00 AM 42.9328 -71.4358 44° Northeast  Level Estimated
Mon 12:58:00 AM 42.9328 -71.4358 44° Northeast  Level Estimated
Mon 12:59:00 AM 42.9328 -71.4358 44° Northeast  Level Estimated
Mon 01:00:00 AM 42.9328 -71.4358 44° Northeast  Level Estimated
Mon 01:01:00 AM 42.9328 -71.4358 44° Northeast  Level Estimated
Mon 01:02:00 AM 42.9328 -71.4358 44° Northeast  Level Estimated

Login

Don't have an account? Register now (free) for customized features, flight alerts, and more!